Time;durP1;ratioP1;P1;durP2;ratioP2;P2;SDS_P1;SDS_P2;PMS_P1;PMS_P2;Temp;Humidity;BMP_temperature;BMP_pressure;BME280_temperature;BME280_humidity;BME280_pressure;Samples;Min_cycle;Max_cycle;Signal;HPM_P1;HPM_P2
2022/08/03 00:00:25;;;;;;;3.80;1.90;;;;;;;21.64;60.60;100851.87;106991;1284;74715;-80
2022/08/03 00:02:52;;;;;;;3.20;1.90;;;;;;;21.58;60.91;100850.98;106997;1282;71478;-80
2022/08/03 00:05:19;;;;;;;4.60;2.20;;;;;;;21.52;61.18;100848.70;107136;1284;73721;-80
2022/08/03 00:07:47;;;;;;;3.40;2.30;;;;;;;21.45;61.30;100849.55;107199;1282;63021;-79
2022/08/03 00:10:15;;;;;;;4.00;2.10;;;;;;;21.40;61.64;100850.01;107227;1282;61647;-80
2022/08/03 00:12:43;;;;;;;3.10;2.20;;;;;;;21.35;62.04;100847.62;107167;1282;75865;-79
2022/08/03 00:15:10;;;;;;;5.50;1.90;;;;;;;21.28;62.23;100844.53;106979;1282;71561;-79
2022/08/03 00:17:43;;;;;;;3.60;2.10;;;;;;;21.21;62.44;100843.70;107257;1282;73413;-80
2022/08/03 00:20:20;;;;;;;3.20;2.10;;;;;;;21.15;62.73;100841.08;107053;1282;62046;-79
2022/08/03 00:22:47;;;;;;;3.70;2.10;;;;;;;21.10;63.00;100840.21;107111;1282;62103;-80
2022/08/03 00:25:15;;;;;;;3.30;2.10;;;;;;;21.04;63.18;100839.99;107087;1282;75967;-81
2022/08/03 00:27:43;;;;;;;3.10;2.00;;;;;;;20.98;63.35;100838.44;107187;1280;71343;-80
2022/08/03 00:30:10;;;;;;;3.60;2.60;;;;;;;20.93;63.54;100836.60;107110;1282;73825;-79
2022/08/03 00:32:37;;;;;;;6.10;2.50;;;;;;;20.88;63.87;100837.86;107230;1282;62313;-79
2022/08/03 00:35:11;;;;;;;4.00;2.40;;;;;;;20.83;64.02;100835.11;107158;1283;60355;-79
2022/08/03 00:37:58;;;;;;;4.90;2.60;;;;;;;20.79;64.37;100835.52;107227;1282;77254;-79
2022/08/03 00:40:26;;;;;;;3.40;2.40;;;;;;;20.74;64.46;100836.06;106828;1283;72613;-80
2022/08/03 00:42:56;;;;;;;5.50;2.60;;;;;;;20.70;64.62;100837.08;107077;1283;74212;-80
2022/08/03 00:45:30;;;;;;;4.70;2.50;;;;;;;20.65;64.82;100835.39;107130;1283;62369;-80
2022/08/03 00:47:58;;;;;;;3.90;2.40;;;;;;;20.61;64.99;100836.19;107315;1283;60605;-80
2022/08/03 00:50:28;;;;;;;3.80;2.70;;;;;;;20.58;65.20;100831.79;107085;1283;74283;-80
2022/08/03 00:52:56;;;;;;;3.50;2.70;;;;;;;20.53;65.40;100829.63;107357;1282;71425;-80
2022/08/03 00:55:24;;;;;;;3.70;2.70;;;;;;;20.50;65.68;100826.39;107117;1284;72868;-80
2022/08/03 00:57:51;;;;;;;4.70;2.90;;;;;;;20.47;65.84;100823.95;107064;1281;63343;-80
2022/08/03 01:00:21;;;;;;;5.00;2.70;;;;;;;20.45;66.01;100821.96;106971;1282;61219;-80
2022/08/03 01:02:49;;;;;;;3.70;2.60;;;;;;;20.42;66.03;100825.30;107285;1282;76183;-81
2022/08/03 01:05:16;;;;;;;6.20;2.90;;;;;;;20.38;66.12;100823.33;106845;1282;73008;-80
2022/08/03 01:08:04;;;;;;;3.30;2.50;;;;;;;20.33;66.27;100820.27;107427;1281;74001;-81
2022/08/03 01:10:35;;;;;;;3.50;2.70;;;;;;;20.29;66.50;100820.77;107396;1282;63278;-80
2022/08/03 01:13:15;;;;;;;4.40;2.80;;;;;;;20.24;66.69;100816.52;106973;1282;60618;-80
2022/08/03 01:16:16;;;;;;;5.40;2.60;;;;;;;20.20;67.00;100817.50;107115;1281;74514;-80
2022/08/03 01:18:53;;;;;;;3.30;3.00;;;;;;;20.16;67.06;100815.41;107302;1282;71470;-80
2022/08/03 01:21:30;;;;;;;3.70;2.60;;;;;;;20.13;67.23;100816.59;107191;1281;73154;-80
2022/08/03 01:24:21;;;;;;;3.60;2.50;;;;;;;20.09;67.35;100815.41;107131;1282;62119;-80
2022/08/03 01:27:11;;;;;;;4.80;2.60;;;;;;;20.06;67.46;100816.02;107212;1282;60069;-80
2022/08/03 01:30:02;;;;;;;4.90;2.90;;;;;;;20.04;67.73;100819.41;107488;1281;74940;-80
2022/08/03 01:32:32;;;;;;;3.40;2.60;;;;;;;20.01;67.79;100818.96;107185;1281;72872;-80
2022/08/03 01:35:34;;;;;;;4.60;2.80;;;;;;;19.96;67.96;100817.84;106996;1283;76210;-80
2022/08/03 01:38:20;;;;;;;3.00;2.50;;;;;;;19.93;68.03;100818.96;107378;1281;62243;-80
2022/08/03 01:40:50;;;;;;;3.70;2.60;;;;;;;19.91;68.19;100819.39;107491;1282;60970;-80
2022/08/03 01:43:19;;;;;;;2.90;2.50;;;;;;;19.88;68.29;100816.90;107323;1282;74504;-80
2022/08/03 01:46:16;;;;;;;3.70;3.10;;;;;;;19.86;68.59;100813.34;106910;1282;73696;-79
2022/08/03 01:48:46;;;;;;;3.40;2.90;;;;;;;19.84;68.61;100816.20;107172;1281;73079;-80
2022/08/03 01:51:18;;;;;;;5.20;2.90;;;;;;;19.81;68.69;100813.22;107100;1281;61405;-80
2022/08/03 01:53:48;;;;;;;3.70;2.70;;;;;;;19.78;68.78;100815.96;107340;1282;61571;-80
2022/08/03 01:56:21;;;;;;;4.60;2.60;;;;;;;19.74;68.86;100818.46;107025;1282;76767;-80
2022/08/03 01:58:50;;;;;;;3.90;2.60;;;;;;;19.72;69.16;100820.27;107354;1281;71090;-79
2022/08/03 02:04:51;;;;;;;4.20;2.70;;;;;;;19.67;69.17;100812.39;107090;1281;61973;-81
2022/08/03 02:07:18;;;;;;;4.50;2.80;;;;;;;19.68;69.18;100815.91;106998;1281;61388;-81
2022/08/03 02:09:49;;;;;;;5.40;2.80;;;;;;;19.65;69.27;100815.23;107480;1282;74909;-81
2022/08/03 02:12:18;;;;;;;4.10;2.90;;;;;;;19.63;69.45;100817.30;107394;1282;70038;-81
2022/08/03 02:14:47;;;;;;;3.80;3.00;;;;;;;19.61;69.44;100816.54;107102;1283;73200;-79
2022/08/03 02:17:15;;;;;;;4.00;2.70;;;;;;;19.59;69.46;100817.02;107198;1281;62359;-79
2022/08/03 02:19:43;;;;;;;4.20;3.20;;;;;;;19.57;69.60;100812.99;106941;1282;61278;-79
2022/08/03 02:22:13;;;;;;;4.60;3.10;;;;;;;19.55;69.63;100816.63;107085;1283;75040;-79
2022/08/03 02:24:40;;;;;;;3.90;3.10;;;;;;;19.52;69.70;100815.25;106947;1282;72329;-81
2022/08/03 02:27:32;;;;;;;3.40;2.90;;;;;;;19.49;69.71;100811.67;107078;1282;74611;-81
2022/08/03 02:30:04;;;;;;;3.90;2.80;;;;;;;19.46;69.81;100812.67;107296;1281;61940;-81
2022/08/03 02:32:35;;;;;;;4.20;3.10;;;;;;;19.44;69.94;100807.73;107337;1281;61403;-80
2022/08/03 02:35:05;;;;;;;5.00;3.00;;;;;;;19.42;70.06;100808.64;107200;1282;76232;-80
2022/08/03 02:37:36;;;;;;;3.50;2.70;;;;;;;19.39;70.26;100809.44;107135;1281;72140;-80
2022/08/03 02:40:11;;;;;;;5.00;2.80;;;;;;;19.36;70.19;100810.21;107226;1282;72893;-80
2022/08/03 02:42:41;;;;;;;4.20;3.00;;;;;;;19.33;70.34;100805.27;106784;1283;61890;-80
2022/08/03 02:45:13;;;;;;;3.50;3.10;;;;;;;19.30;70.50;100805.93;107095;1281;61706;-80
2022/08/03 02:47:44;;;;;;;4.10;2.80;;;;;;;19.27;70.56;100805.43;107086;1281;75510;-80
2022/08/03 02:50:21;;;;;;;4.80;3.40;;;;;;;19.25;70.74;100804.46;107436;1281;72367;-80
2022/08/03 02:52:50;;;;;;;4.10;3.30;;;;;;;19.24;70.72;100801.10;107426;1281;72316;-80
2022/08/03 02:55:18;;;;;;;4.40;3.70;;;;;;;19.22;70.79;100798.89;107182;1281;63788;-80
2022/08/03 02:57:46;;;;;;;3.90;3.10;;;;;;;19.19;70.88;100795.38;106871;1282;60301;-81
2022/08/03 03:00:14;;;;;;;4.80;2.80;;;;;;;19.18;70.85;100797.91;107369;1281;75974;-80
2022/08/03 03:02:57;;;;;;;5.20;3.00;;;;;;;19.18;70.92;100795.93;107065;1282;72434;-79
2022/08/03 03:05:24;;;;;;;4.20;3.20;;;;;;;19.18;70.96;100797.66;107163;1281;74330;-80
2022/08/03 03:08:16;;;;;;;3.70;3.20;;;;;;;19.19;71.05;100793.64;107303;1282;64571;-80
2022/08/03 03:10:46;;;;;;;5.40;3.50;;;;;;;19.17;71.02;100790.80;107004;1281;60251;-80
2022/08/03 03:13:15;;;;;;;4.70;3.30;;;;;;;19.15;71.00;100791.94;106969;1282;75519;-80
2022/08/03 03:15:43;;;;;;;4.20;3.30;;;;;;;19.12;71.07;100793.47;107524;1281;71406;-80
2022/08/03 03:18:11;;;;;;;4.40;3.10;;;;;;;19.11;71.28;100794.23;106949;1282;74596;-80
2022/08/03 03:20:51;;;;;;;4.70;3.10;;;;;;;19.08;71.36;100792.89;107407;1281;61368;-85
2022/08/03 03:23:20;;;;;;;3.70;2.90;;;;;;;19.06;71.25;100795.52;107277;1281;60902;-80
2022/08/03 03:25:48;;;;;;;7.30;3.20;;;;;;;19.05;71.53;100795.08;107300;1281;75219;-81
2022/08/03 03:28:16;;;;;;;4.50;3.20;;;;;;;19.06;71.40;100794.98;107423;1282;72641;-81
2022/08/03 03:30:43;;;;;;;5.00;3.00;;;;;;;19.07;71.58;100794.52;107149;1281;73399;-79
2022/08/03 03:33:19;;;;;;;3.80;2.90;;;;;;;19.06;71.46;100800.15;107528;1282;62168;-80
2022/08/03 03:35:46;;;;;;;4.30;3.20;;;;;;;19.05;71.44;100798.10;107877;1281;59611;-81
2022/08/03 03:38:13;;;;;;;3.70;2.80;;;;;;;19.05;71.57;100799.21;107770;1282;75588;-80
2022/08/03 03:40:42;;;;;;;4.60;3.00;;;;;;;19.05;71.25;100799.16;107939;1282;71553;-80
2022/08/03 03:43:12;;;;;;;3.60;2.80;;;;;;;19.06;71.37;100801.98;107910;1282;73513;-80
2022/08/03 03:45:42;;;;;;;5.90;3.10;;;;;;;19.07;71.29;100804.36;108033;1282;61990;-80
2022/08/03 03:48:09;;;;;;;4.10;3.00;;;;;;;19.07;71.21;100800.71;107182;1282;60659;-82
2022/08/03 03:50:39;;;;;;;3.90;2.90;;;;;;;19.06;71.23;100798.13;107111;1282;76041;-80
2022/08/03 03:53:09;;;;;;;4.60;3.00;;;;;;;19.05;71.32;100795.66;107082;1281;70030;-81
2022/08/03 03:55:37;;;;;;;3.70;3.00;;;;;;;19.03;71.28;100795.23;107373;1282;72938;-81
2022/08/03 03:58:24;;;;;;;5.10;3.10;;;;;;;19.03;71.45;100793.48;107171;1281;63714;-81
2022/08/03 04:00:52;;;;;;;3.70;2.90;;;;;;;19.02;71.67;100794.71;107088;1282;60874;-81
2022/08/03 04:03:20;;;;;;;4.50;2.90;;;;;;;19.02;71.65;100795.46;107410;1281;75076;-81
2022/08/03 04:11:57;;;;;;;5.70;3.10;;;;;;;19.03;71.75;100792.80;106338;1286;63180;-81
2022/08/03 04:14:44;;;;;;;4.90;3.20;;;;;;;19.05;71.74;100798.19;106486;1287;61132;-80
2022/08/03 04:17:12;;;;;;;4.50;3.30;;;;;;;19.07;71.68;100797.81;106918;1281;76309;-81
2022/08/03 04:19:51;;;;;;;5.10;3.20;;;;;;;19.09;71.53;100797.06;106962;1281;71753;-81
2022/08/03 04:22:23;;;;;;;5.80;2.90;;;;;;;19.11;71.46;100800.86;106755;1281;74284;-80
2022/08/03 04:25:01;;;;;;;5.60;3.20;;;;;;;19.13;71.47;100796.67;107275;1281;61738;-81
2022/08/03 04:27:34;;;;;;;4.90;2.80;;;;;;;19.17;71.28;100798.54;107352;1281;60300;-81
2022/08/03 04:30:04;;;;;;;4.20;2.60;;;;;;;19.22;71.24;100801.25;106901;1282;75151;-81
2022/08/03 04:32:31;;;;;;;4.30;2.70;;;;;;;19.27;71.02;100803.21;106836;1281;71664;-81
2022/08/03 04:34:58;;;;;;;4.90;2.90;;;;;;;19.31;70.85;100805.04;107300;1282;74202;-82
2022/08/03 04:37:31;;;;;;;4.50;2.60;;;;;;;19.36;70.69;100807.48;107250;1282;62359;-81
2022/08/03 04:40:01;;;;;;;5.30;2.60;;;;;;;19.42;70.61;100811.77;107203;1282;61463;-82
2022/08/03 04:42:32;;;;;;;5.10;2.70;;;;;;;19.49;70.27;100813.45;107032;1281;74911;-81
2022/08/03 04:44:59;;;;;;;4.00;2.60;;;;;;;19.55;70.25;100813.98;106889;1284;71128;-81
2022/08/03 04:47:31;;;;;;;4.10;2.70;;;;;;;19.62;70.05;100813.88;107430;1281;73320;-81
2022/08/03 04:50:00;;;;;;;5.40;3.00;;;;;;;19.69;69.86;100817.83;107038;1282;61965;-81
2022/08/03 04:52:27;;;;;;;4.90;2.70;;;;;;;19.77;69.60;100818.89;106997;1282;60760;-82
2022/08/03 04:54:55;;;;;;;5.10;3.10;;;;;;;19.83;69.48;100819.59;106999;1282;75020;-82
2022/08/03 04:57:22;;;;;;;5.20;2.60;;;;;;;19.91;69.39;100816.65;107299;1282;72864;-81
2022/08/03 04:59:53;;;;;;;3.50;2.50;;;;;;;20.01;69.17;100819.82;107020;1284;74171;-81
2022/08/03 05:02:28;;;;;;;3.20;2.50;;;;;;;20.11;68.92;100824.32;107008;1282;61958;-82
2022/08/03 05:04:55;;;;;;;4.50;2.30;;;;;;;20.21;68.60;100822.75;107220;1282;60369;-81
2022/08/03 05:07:22;;;;;;;4.10;2.50;;;;;;;20.30;68.31;100821.55;107035;1281;74979;-81
2022/08/03 05:09:51;;;;;;;4.30;2.40;;;;;;;20.39;67.96;100824.05;107123;1282;70470;-81
2022/08/03 05:12:29;;;;;;;6.30;2.30;;;;;;;20.50;67.40;100826.94;107570;1280;73545;-82
2022/08/03 05:15:00;;;;;;;5.90;2.50;;;;;;;20.61;67.01;100828.41;107016;1283;62207;-82
2022/08/03 05:17:27;;;;;;;5.40;2.30;;;;;;;20.70;66.59;100827.31;106551;1284;61252;-81
2022/08/03 05:19:54;;;;;;;7.10;2.40;;;;;;;20.80;66.03;100825.89;106864;1284;74942;-80
2022/08/03 05:22:22;;;;;;;3.50;2.30;;;;;;;20.88;65.34;100825.99;106894;1281;71541;-82
2022/08/03 05:24:49;;;;;;;7.60;2.60;;;;;;;20.98;65.01;100824.30;106989;1281;73251;-80
2022/08/03 05:27:18;;;;;;;3.10;1.90;;;;;;;21.09;64.57;100826.16;106893;1282;62028;-81
2022/08/03 05:29:45;;;;;;;5.90;2.50;;;;;;;21.20;64.05;100822.81;107123;1281;60966;-81
2022/08/03 05:32:13;;;;;;;4.00;2.00;;;;;;;21.32;63.49;100821.13;106913;1282;73558;-82
2022/08/03 05:34:40;;;;;;;5.10;2.30;;;;;;;21.43;63.12;100822.21;107068;1282;71495;-82
2022/08/03 05:37:08;;;;;;;2.80;2.00;;;;;;;21.54;62.80;100817.05;107137;1282;74205;-82
2022/08/03 05:39:35;;;;;;;3.60;2.00;;;;;;;21.67;62.14;100818.34;107097;1282;63519;-81
2022/08/03 05:42:02;;;;;;;3.80;1.70;;;;;;;21.79;61.85;100815.73;106707;1282;60409;-82
2022/08/03 05:44:30;;;;;;;4.50;2.00;;;;;;;21.91;61.18;100816.51;107283;1281;75021;-81
2022/08/03 05:46:58;;;;;;;5.50;1.90;;;;;;;22.04;60.94;100816.36;107188;1281;71602;-83
2022/08/03 05:49:25;;;;;;;3.90;2.00;;;;;;;22.17;60.35;100811.41;107073;1281;73224;-82
2022/08/03 05:51:52;;;;;;;3.90;1.70;;;;;;;22.30;59.87;100808.38;107009;1283;63204;-82
2022/08/03 05:54:39;;;;;;;3.60;2.10;;;;;;;22.44;59.38;100806.05;107191;1281;59558;-81
2022/08/03 05:57:24;;;;;;;6.00;2.20;;;;;;;22.58;58.82;100807.36;107152;1282;74971;-81
2022/08/03 05:59:52;;;;;;;3.50;1.80;;;;;;;22.70;58.39;100805.73;106969;1284;71542;-81
2022/08/03 06:02:27;;;;;;;5.80;1.70;;;;;;;22.83;57.69;100806.41;106937;1283;72977;-81
2022/08/03 06:04:54;;;;;;;2.60;1.70;;;;;;;22.97;56.87;100810.23;106952;1284;60352;-81
2022/08/03 06:07:21;;;;;;;2.70;1.60;;;;;;;23.06;56.62;100814.25;106623;1284;62313;-81
2022/08/03 06:09:48;;;;;;;3.60;1.70;;;;;;;23.16;56.22;100809.21;106791;1284;75197;-81
2022/08/03 06:12:36;;;;;;;4.70;1.50;;;;;;;23.29;55.82;100812.26;107173;1283;73396;-81
2022/08/03 06:15:04;;;;;;;4.00;2.00;;;;;;;23.38;55.45;100813.70;107106;1284;76300;-81
2022/08/03 06:17:50;;;;;;;3.10;1.70;;;;;;;23.49;55.25;100812.86;107016;1284;62191;-81
2022/08/03 06:20:18;;;;;;;3.50;1.60;;;;;;;23.62;55.10;100812.41;106762;1283;61134;-82
2022/08/03 06:22:48;;;;;;;3.20;1.60;;;;;;;23.69;54.37;100813.07;107087;1283;75370;-81
2022/08/03 06:25:18;;;;;;;2.40;1.80;;;;;;;23.74;54.33;100810.23;106947;1283;71391;-82
2022/08/03 06:27:47;;;;;;;3.00;1.70;;;;;;;23.84;54.26;100810.27;107053;1282;73446;-81
2022/08/03 06:30:16;;;;;;;4.20;1.90;;;;;;;23.91;53.64;100807.02;106600;1284;61717;-81
2022/08/03 06:32:47;;;;;;;4.00;1.70;;;;;;;23.98;53.73;100809.83;106849;1283;60605;-81
2022/08/03 06:35:18;;;;;;;2.80;1.60;;;;;;;24.03;53.54;100815.06;106887;1283;75114;-81
2022/08/03 06:37:47;;;;;;;2.60;1.50;;;;;;;24.13;53.46;100813.70;106820;1284;71395;-81
2022/08/03 06:40:17;;;;;;;4.50;1.80;;;;;;;24.26;53.13;100815.64;106527;1283;72523;-81
2022/08/03 06:42:50;;;;;;;3.00;1.90;;;;;;;24.42;52.98;100818.30;107258;1283;60493;-82
2022/08/03 06:45:17;;;;;;;3.20;1.60;;;;;;;24.56;52.78;100822.40;106803;1283;59351;-81
2022/08/03 06:47:44;;;;;;;2.30;1.70;;;;;;;24.74;52.81;100822.79;106988;1283;74004;-81
2022/08/03 06:50:11;;;;;;;2.80;1.70;;;;;;;24.90;52.18;100824.41;107028;1284;72525;-81
2022/08/03 06:52:44;;;;;;;5.30;1.70;;;;;;;25.07;52.03;100827.05;106861;1283;73314;-81
2022/08/03 06:55:11;;;;;;;3.60;1.80;;;;;;;25.25;51.55;100829.06;106927;1284;60629;-81
2022/08/03 06:57:38;;;;;;;5.30;1.90;;;;;;;25.43;51.35;100831.63;107116;1284;61144;-81
2022/08/03 07:00:06;;;;;;;2.50;1.70;;;;;;;25.59;50.78;100835.11;106768;1283;75128;-81
2022/08/03 07:02:41;;;;;;;2.90;1.40;;;;;;;25.66;50.28;100835.16;106483;1283;71119;-81
2022/08/03 07:05:08;;;;;;;5.50;1.50;;;;;;;25.70;49.94;100838.20;107000;1284;72291;-82
2022/08/03 07:07:36;;;;;;;2.90;1.50;;;;;;;25.79;50.09;100838.30;106871;1284;60441;-81
2022/08/03 07:10:04;;;;;;;2.40;1.60;;;;;;;25.86;48.83;100838.58;107004;1284;61223;-81
2022/08/03 07:12:32;;;;;;;4.10;1.70;;;;;;;25.97;48.96;100842.72;106970;1284;76105;-81
2022/08/03 07:15:00;;;;;;;3.40;1.50;;;;;;;26.01;48.18;100848.20;106782;1284;72685;-82
2022/08/03 07:17:30;;;;;;;4.30;1.60;;;;;;;26.07;48.05;100841.77;106812;1284;72410;-81
2022/08/03 07:19:57;;;;;;;3.10;1.30;;;;;;;26.21;48.24;100844.02;106786;1284;61744;-81
2022/08/03 07:22:24;;;;;;;3.00;1.50;;;;;;;26.31;47.28;100844.77;106675;1285;61407;-80
2022/08/03 07:24:51;;;;;;;3.20;1.50;;;;;;;26.38;47.23;100846.48;106820;1283;76192;-79
2022/08/03 07:27:18;;;;;;;3.60;1.40;;;;;;;26.46;47.19;100841.66;106504;1284;71572;-81
2022/08/03 07:29:45;;;;;;;4.90;1.60;;;;;;;26.61;47.65;100840.80;106747;1284;74687;-81
2022/08/03 07:32:12;;;;;;;2.90;1.30;;;;;;;26.73;47.21;100842.23;106827;1283;61230;-81
2022/08/03 07:34:39;;;;;;;2.80;1.40;;;;;;;26.80;46.30;100840.02;107110;1284;61194;-81
2022/08/03 07:37:07;;;;;;;4.50;1.40;;;;;;;26.84;46.11;100841.04;106775;1284;75995;-81
2022/08/03 07:39:33;;;;;;;3.10;1.40;;;;;;;26.89;45.67;100844.11;107130;1284;71392;-80
2022/08/03 07:42:01;;;;;;;3.10;1.40;;;;;;;26.98;45.98;100838.77;106806;1284;72555;-81
2022/08/03 07:44:28;;;;;;;2.60;1.50;;;;;;;27.10;45.68;100844.31;107264;1283;61731;-80
2022/08/03 07:46:56;;;;;;;3.20;1.30;;;;;;;27.17;45.02;100844.69;107028;1283;60290;-80
2022/08/03 07:49:24;;;;;;;2.20;1.40;;;;;;;27.25;45.05;100845.65;107240;1284;74947;-80
2022/08/03 07:54:38;;;;;;;3.80;1.30;;;;;;;27.60;44.65;100841.29;106284;1284;71935;-81
2022/08/03 07:57:05;;;;;;;2.60;1.10;;;;;;;27.74;44.12;100839.60;107044;1284;61182;-80
2022/08/03 07:59:34;;;;;;;2.90;1.20;;;;;;;27.88;43.80;100840.84;106804;1284;61775;-80
2022/08/03 08:02:21;;;;;;;2.20;1.40;;;;;;;28.05;43.36;100840.46;107144;1284;75773;-80
2022/08/03 08:04:48;;;;;;;4.20;1.20;;;;;;;28.13;43.25;100842.52;106840;1284;72639;-80
2022/08/03 08:07:15;;;;;;;2.80;1.20;;;;;;;28.19;42.72;100841.23;107340;1284;74508;-80
2022/08/03 08:09:44;;;;;;;3.00;1.00;;;;;;;28.25;42.79;100837.23;106869;1284;60725;-80
2022/08/03 08:12:11;;;;;;;3.30;1.20;;;;;;;28.30;42.68;100837.25;107016;1284;61514;-80
2022/08/03 08:14:44;;;;;;;3.20;1.20;;;;;;;28.38;42.48;100831.75;107212;1283;74944;-80
2022/08/03 08:17:12;;;;;;;4.20;1.50;;;;;;;28.49;42.61;100834.73;107109;1284;71382;-80
2022/08/03 08:19:38;;;;;;;3.70;1.20;;;;;;;28.64;42.63;100834.06;107238;1284;72789;-80
2022/08/03 08:22:18;;;;;;;6.30;1.20;;;;;;;28.75;42.23;100836.22;107208;1284;59642;-80
2022/08/03 08:24:56;;;;;;;4.90;1.20;;;;;;;28.80;41.70;100834.95;106769;1284;59560;-80
2022/08/03 08:27:23;;;;;;;3.50;1.10;;;;;;;28.90;41.93;100831.55;106829;1284;76183;-80
2022/08/03 08:29:50;;;;;;;3.40;1.20;;;;;;;28.94;41.91;100831.32;107124;1284;71129;-81
2022/08/03 08:32:21;;;;;;;5.00;1.20;;;;;;;29.00;41.52;100829.21;106858;1283;72987;-80
2022/08/03 08:34:48;;;;;;;2.00;1.00;;;;;;;29.04;41.57;100833.02;106774;1284;61168;-80
2022/08/03 08:37:15;;;;;;;2.70;1.20;;;;;;;29.06;41.64;100833.48;107333;1284;60664;-80
2022/08/03 08:39:42;;;;;;;2.80;1.10;;;;;;;29.10;41.46;100831.09;106711;1284;74946;-81
2022/08/03 08:42:09;;;;;;;3.10;0.90;;;;;;;29.17;41.43;100834.78;107190;1283;72565;-82
2022/08/03 08:44:37;;;;;;;3.00;0.90;;;;;;;29.26;41.33;100833.80;106868;1282;73124;-82
2022/08/03 08:47:04;;;;;;;2.10;0.80;;;;;;;29.30;41.13;100829.55;107201;1284;62797;-81
2022/08/03 08:49:34;;;;;;;3.60;1.10;;;;;;;29.35;40.99;100834.48;107118;1283;61238;-79
2022/08/03 08:52:02;;;;;;;4.80;1.10;;;;;;;29.42;40.41;100833.30;107308;1284;76219;-80
2022/08/03 08:54:50;;;;;;;3.30;1.20;;;;;;;29.50;40.62;100837.64;106714;1284;73000;-80
2022/08/03 08:57:19;;;;;;;4.10;1.10;;;;;;;29.55;40.16;100838.04;107182;1283;74346;-81
2022/08/03 09:00:09;;;;;;;2.20;1.00;;;;;;;29.64;40.21;100837.78;107102;1284;61374;-80
2022/08/03 09:02:36;;;;;;;3.20;1.00;;;;;;;29.75;40.12;100832.49;106485;1284;60590;-80
2022/08/03 09:05:03;;;;;;;5.40;1.10;;;;;;;29.80;40.05;100835.36;106740;1284;75105;-80
2022/08/03 09:07:33;;;;;;;3.70;1.10;;;;;;;29.86;40.17;100832.45;106752;1282;71194;-80
2022/08/03 09:10:01;;;;;;;3.10;1.00;;;;;;;29.95;39.65;100834.78;106991;1283;72979;-80
2022/08/03 09:12:41;;;;;;;3.30;1.00;;;;;;;30.00;39.50;100834.82;106961;1284;60670;-80
2022/08/03 09:15:20;;;;;;;2.70;1.10;;;;;;;30.01;39.05;100831.95;107151;1284;60427;-80
2022/08/03 09:17:48;;;;;;;2.60;1.10;;;;;;;30.11;39.51;100825.38;107182;1282;78202;-81
2022/08/03 09:20:18;;;;;;;4.60;1.30;;;;;;;30.25;39.39;100819.22;106983;1284;73807;-81
2022/08/03 09:23:09;;;;;;;3.70;1.20;;;;;;;30.41;39.53;100812.24;106842;1284;74476;-80
2022/08/03 09:25:58;;;;;;;2.80;1.10;;;;;;;30.62;38.68;100823.48;107181;1283;60717;-80
2022/08/03 09:28:34;;;;;;;4.20;0.90;;;;;;;30.62;36.94;100824.66;106837;1284;62088;-80
2022/08/03 09:31:29;;;;;;;4.00;1.20;;;;;;;30.70;37.96;100821.11;107128;1283;77097;-80
2022/08/03 09:33:59;;;;;;;2.30;0.90;;;;;;;30.79;37.43;100823.77;106716;1284;72147;-80
2022/08/03 09:36:34;;;;;;;3.40;1.00;;;;;;;30.77;36.68;100824.18;107396;1283;72348;-81
2022/08/03 09:39:05;;;;;;;2.70;0.90;;;;;;;30.77;35.85;100829.66;106795;1283;60556;-81
2022/08/03 09:41:32;;;;;;;4.60;0.90;;;;;;;30.75;36.17;100831.08;107005;1283;60288;-81
2022/08/03 09:43:59;;;;;;;3.60;1.00;;;;;;;30.76;36.65;100831.55;106762;1284;76109;-81
2022/08/03 09:46:30;;;;;;;6.20;1.00;;;;;;;30.81;36.60;100828.90;107063;1283;72233;-81
2022/08/03 09:49:10;;;;;;;3.30;1.00;;;;;;;30.85;36.28;100826.46;107007;1284;72968;-81
2022/08/03 09:51:39;;;;;;;3.30;1.10;;;;;;;30.84;36.22;100822.55;106898;1284;60437;-80
2022/08/03 09:54:27;;;;;;;4.20;1.30;;;;;;;30.88;35.80;100826.27;107151;1284;62442;-81
2022/08/03 09:56:56;;;;;;;2.70;1.00;;;;;;;30.82;35.59;100827.14;106983;1283;75017;-81
2022/08/03 09:59:28;;;;;;;3.80;1.20;;;;;;;30.83;36.01;100824.04;106952;1284;71310;-81
2022/08/03 10:01:57;;;;;;;2.70;1.10;;;;;;;30.91;36.18;100823.64;107523;1283;73061;-81
2022/08/03 10:04:27;;;;;;;3.30;1.20;;;;;;;30.93;36.14;100816.28;106937;1284;60845;-80
2022/08/03 10:07:05;;;;;;;2.50;1.10;;;;;;;31.05;36.36;100817.98;106883;1284;61304;-80
2022/08/03 10:09:36;;;;;;;3.50;1.20;;;;;;;31.07;36.33;100815.36;106881;1283;77088;-81
2022/08/03 10:12:11;;;;;;;4.50;1.30;;;;;;;31.09;36.44;100810.00;106609;1282;72999;-80
2022/08/03 10:14:39;;;;;;;5.30;1.00;;;;;;;31.15;36.00;100806.55;106763;1284;72964;-80
2022/08/03 10:17:08;;;;;;;5.00;1.10;;;;;;;31.16;36.03;100806.98;106756;1284;60342;-81
2022/08/03 10:19:35;;;;;;;2.10;1.10;;;;;;;31.23;36.23;100804.02;106779;1284;61363;-81
2022/08/03 10:22:07;;;;;;;2.80;1.00;;;;;;;31.29;35.78;100814.40;107188;1284;76094;-80
2022/08/03 10:24:36;;;;;;;3.10;1.20;;;;;;;31.32;34.90;100803.74;106851;1284;72312;-80
2022/08/03 10:27:06;;;;;;;4.60;1.10;;;;;;;31.34;35.38;100806.95;106989;1284;74343;-80
2022/08/03 10:29:38;;;;;;;4.50;1.20;;;;;;;31.36;35.32;100808.64;106888;1283;61304;-81
2022/08/03 10:32:29;;;;;;;2.30;1.20;;;;;;;31.44;35.16;100798.65;107196;1284;60456;-81
2022/08/03 10:35:06;;;;;;;2.90;1.10;;;;;;;31.50;35.30;100799.15;107040;1284;74704;-81
2022/08/03 10:38:13;;;;;;;5.00;1.40;;;;;;;31.58;35.13;100795.44;107013;1283;71864;-81
2022/08/03 10:40:40;;;;;;;4.30;1.20;;;;;;;31.59;34.96;100790.85;106956;1283;72282;-81
2022/08/03 10:43:26;;;;;;;3.40;1.10;;;;;;;31.66;34.87;100784.36;107054;1283;59983;-80
2022/08/03 10:45:55;;;;;;;2.00;1.10;;;;;;;31.73;34.15;100791.42;106791;1284;61051;-80
2022/08/03 10:48:22;;;;;;;2.70;1.10;;;;;;;31.69;34.08;100788.12;106748;1282;74997;-80
2022/08/03 10:50:49;;;;;;;3.00;1.20;;;;;;;31.66;34.37;100786.33;106945;1284;72650;-81
2022/08/03 10:53:33;;;;;;;3.50;1.30;;;;;;;31.78;34.50;100784.86;107030;1284;73133;-80
2022/08/03 10:59:12;;;;;;;3.30;1.20;;;;;;;31.94;33.97;100784.22;107217;1282;61862;-80
2022/08/03 11:01:55;;;;;;;2.00;1.10;;;;;;;31.99;34.00;100784.13;106752;1282;759610;-81
2022/08/03 11:04:28;;;;;;;1.90;1.10;;;;;;;32.11;34.02;100774.44;107107;1282;71457;-81
2022/08/03 11:07:14;;;;;;;3.50;1.20;;;;;;;32.30;33.82;100774.08;107005;1282;74005;-81
2022/08/03 11:09:46;;;;;;;3.20;1.00;;;;;;;32.25;33.51;100786.64;106855;1282;61624;-81
2022/08/03 11:12:28;;;;;;;3.20;1.40;;;;;;;32.25;33.38;100786.48;107195;1282;61648;-81
2022/08/03 11:15:05;;;;;;;4.50;1.40;;;;;;;32.23;33.19;100779.89;107362;1282;75575;-81
2022/08/03 11:17:34;;;;;;;2.80;1.20;;;;;;;32.33;33.39;100771.54;107046;1281;72453;-81
2022/08/03 11:20:58;;;;;;;3.00;1.30;;;;;;;32.35;32.82;100776.20;107152;1282;74359;-81
2022/08/03 11:23:46;;;;;;;4.60;1.20;;;;;;;32.48;32.95;100770.70;107237;1282;60088;-81
2022/08/03 11:26:32;;;;;;;2.50;1.20;;;;;;;32.55;32.49;100776.43;107148;1282;60674;-81
2022/08/03 11:29:28;;;;;;;2.30;1.00;;;;;;;32.51;32.63;100770.80;107078;1281;75994;-81
2022/08/03 11:31:55;;;;;;;2.60;1.10;;;;;;;32.36;32.81;100772.77;107176;1282;70563;-82
2022/08/03 11:34:23;;;;;;;2.50;1.20;;;;;;;32.40;32.82;100769.67;107200;1282;71718;-81
2022/08/03 11:37:19;;;;;;;2.70;1.10;;;;;;;32.45;33.10;100770.78;107171;1282;61534;-82
2022/08/03 11:39:49;;;;;;;4.40;1.50;;;;;;;32.42;32.98;100772.59;107106;1282;60801;-81
2022/08/03 11:42:22;;;;;;;3.70;1.40;;;;;;;32.47;32.82;100771.66;107327;1283;74997;-81
2022/08/03 11:44:50;;;;;;;3.50;1.20;;;;;;;32.52;32.57;100769.94;107330;1284;71570;-80
2022/08/03 11:47:19;;;;;;;3.40;1.20;;;;;;;32.71;32.84;100763.11;107176;1282;72988;-81
2022/08/03 11:49:47;;;;;;;3.00;1.30;;;;;;;32.90;32.26;100757.77;107095;1282;61266;-81
2022/08/03 11:52:16;;;;;;;3.40;1.30;;;;;;;33.20;32.33;100757.15;106818;1282;61289;-81
2022/08/03 11:54:44;;;;;;;5.30;1.20;;;;;;;33.35;31.72;100763.36;107180;1282;73917;-81